sensor_id;sensor_type;location;lat;lon;timestamp;P1;durP1;ratioP1;P2;durP2;ratioP2
75535;SDS011;64119;52.070;20.804;2023-07-13T00:00:43;7.20;;;4.50;;
75535;SDS011;64119;52.070;20.804;2023-07-13T00:03:31;12.70;;;5.00;;
75535;SDS011;64119;52.070;20.804;2023-07-13T00:06:02;7.80;;;5.70;;
75535;SDS011;64119;52.070;20.804;2023-07-13T00:08:30;7.70;;;5.10;;
75535;SDS011;64119;52.070;20.804;2023-07-13T00:11:00;8.00;;;5.20;;
75535;SDS011;64119;52.070;20.804;2023-07-13T00:15:58;5.80;;;4.10;;
75535;SDS011;64119;52.070;20.804;2023-07-13T00:18:26;7.00;;;4.80;;
75535;SDS011;64119;52.070;20.804;2023-07-13T00:20:57;7.70;;;5.10;;
75535;SDS011;64119;52.070;20.804;2023-07-13T00:23:36;6.80;;;5.50;;
75535;SDS011;64119;52.070;20.804;2023-07-13T00:26:24;8.60;;;5.50;;
75535;SDS011;64119;52.070;20.804;2023-07-13T00:28:54;6.90;;;5.10;;
75535;SDS011;64119;52.070;20.804;2023-07-13T00:31:22;7.90;;;5.00;;
75535;SDS011;64119;52.070;20.804;2023-07-13T00:33:51;8.70;;;6.10;;
75535;SDS011;64119;52.070;20.804;2023-07-13T00:36:19;7.40;;;5.50;;
75535;SDS011;64119;52.070;20.804;2023-07-13T00:38:47;8.40;;;5.50;;
75535;SDS011;64119;52.070;20.804;2023-07-13T00:41:15;8.00;;;5.90;;
75535;SDS011;64119;52.070;20.804;2023-07-13T00:43:44;7.30;;;5.60;;
75535;SDS011;64119;52.070;20.804;2023-07-13T00:46:15;7.20;;;5.60;;
75535;SDS011;64119;52.070;20.804;2023-07-13T00:49:10;8.50;;;5.50;;
75535;SDS011;64119;52.070;20.804;2023-07-13T00:51:47;8.60;;;5.60;;
75535;SDS011;64119;52.070;20.804;2023-07-13T00:54:19;7.00;;;5.20;;
75535;SDS011;64119;52.070;20.804;2023-07-13T00:56:53;7.70;;;5.00;;
75535;SDS011;64119;52.070;20.804;2023-07-13T00:59:24;8.60;;;5.70;;
75535;SDS011;64119;52.070;20.804;2023-07-13T01:01:54;7.40;;;5.20;;
75535;SDS011;64119;52.070;20.804;2023-07-13T01:04:24;9.00;;;5.80;;
75535;SDS011;64119;52.070;20.804;2023-07-13T01:06:56;9.60;;;6.30;;
75535;SDS011;64119;52.070;20.804;2023-07-13T01:09:25;7.70;;;5.50;;
75535;SDS011;64119;52.070;20.804;2023-07-13T01:11:53;8.60;;;6.10;;
75535;SDS011;64119;52.070;20.804;2023-07-13T01:14:22;7.00;;;5.40;;
75535;SDS011;64119;52.070;20.804;2023-07-13T01:16:50;7.40;;;5.30;;
75535;SDS011;64119;52.070;20.804;2023-07-13T01:22:11;7.10;;;5.30;;
75535;SDS011;64119;52.070;20.804;2023-07-13T01:24:45;8.30;;;5.60;;
75535;SDS011;64119;52.070;20.804;2023-07-13T01:27:17;8.60;;;5.30;;
75535;SDS011;64119;52.070;20.804;2023-07-13T01:29:48;7.40;;;5.60;;
75535;SDS011;64119;52.070;20.804;2023-07-13T01:32:20;9.10;;;5.60;;
75535;SDS011;64119;52.070;20.804;2023-07-13T01:34:54;7.90;;;6.00;;
75535;SDS011;64119;52.070;20.804;2023-07-13T01:37:23;7.20;;;5.60;;
75535;SDS011;64119;52.070;20.804;2023-07-13T01:39:53;10.40;;;5.90;;
75535;SDS011;64119;52.070;20.804;2023-07-13T01:42:21;8.20;;;6.00;;
75535;SDS011;64119;52.070;20.804;2023-07-13T01:45:07;7.90;;;5.80;;
75535;SDS011;64119;52.070;20.804;2023-07-13T01:47:35;7.10;;;5.40;;
75535;SDS011;64119;52.070;20.804;2023-07-13T01:50:04;7.70;;;5.60;;
75535;SDS011;64119;52.070;20.804;2023-07-13T01:52:32;8.70;;;6.10;;
75535;SDS011;64119;52.070;20.804;2023-07-13T01:55:00;9.60;;;6.60;;
75535;SDS011;64119;52.070;20.804;2023-07-13T01:57:29;7.40;;;5.40;;
75535;SDS011;64119;52.070;20.804;2023-07-13T01:59:57;7.30;;;5.60;;
75535;SDS011;64119;52.070;20.804;2023-07-13T02:02:27;7.60;;;6.30;;
75535;SDS011;64119;52.070;20.804;2023-07-13T02:04:54;8.40;;;5.50;;
75535;SDS011;64119;52.070;20.804;2023-07-13T02:07:22;8.70;;;5.40;;
75535;SDS011;64119;52.070;20.804;2023-07-13T02:09:51;7.50;;;5.60;;
75535;SDS011;64119;52.070;20.804;2023-07-13T02:12:19;11.20;;;6.50;;
75535;SDS011;64119;52.070;20.804;2023-07-13T02:14:47;8.90;;;6.00;;
75535;SDS011;64119;52.070;20.804;2023-07-13T02:17:14;8.00;;;6.30;;
75535;SDS011;64119;52.070;20.804;2023-07-13T02:19:42;9.30;;;6.00;;
75535;SDS011;64119;52.070;20.804;2023-07-13T02:22:10;9.30;;;6.70;;
75535;SDS011;64119;52.070;20.804;2023-07-13T02:24:38;9.00;;;6.00;;
75535;SDS011;64119;52.070;20.804;2023-07-13T02:27:06;8.30;;;6.00;;
75535;SDS011;64119;52.070;20.804;2023-07-13T02:29:34;8.20;;;6.00;;
75535;SDS011;64119;52.070;20.804;2023-07-13T02:32:01;12.20;;;6.60;;
75535;SDS011;64119;52.070;20.804;2023-07-13T02:34:33;9.90;;;6.50;;
75535;SDS011;64119;52.070;20.804;2023-07-13T02:37:04;7.20;;;6.00;;
75535;SDS011;64119;52.070;20.804;2023-07-13T02:39:34;7.50;;;5.90;;
75535;SDS011;64119;52.070;20.804;2023-07-13T02:42:03;9.20;;;5.90;;
75535;SDS011;64119;52.070;20.804;2023-07-13T02:44:31;8.10;;;5.60;;
75535;SDS011;64119;52.070;20.804;2023-07-13T02:47:00;6.50;;;5.60;;
75535;SDS011;64119;52.070;20.804;2023-07-13T02:49:28;9.50;;;5.70;;
75535;SDS011;64119;52.070;20.804;2023-07-13T02:51:57;7.60;;;5.90;;
75535;SDS011;64119;52.070;20.804;2023-07-13T02:54:24;9.00;;;6.00;;
75535;SDS011;64119;52.070;20.804;2023-07-13T02:56:53;10.20;;;6.40;;
75535;SDS011;64119;52.070;20.804;2023-07-13T02:59:21;9.90;;;7.50;;
75535;SDS011;64119;52.070;20.804;2023-07-13T03:01:49;8.90;;;6.40;;
75535;SDS011;64119;52.070;20.804;2023-07-13T03:04:17;10.20;;;7.10;;
75535;SDS011;64119;52.070;20.804;2023-07-13T03:06:47;8.10;;;6.10;;
75535;SDS011;64119;52.070;20.804;2023-07-13T03:09:18;8.10;;;6.50;;
75535;SDS011;64119;52.070;20.804;2023-07-13T03:11:54;10.00;;;7.10;;
75535;SDS011;64119;52.070;20.804;2023-07-13T03:14:28;9.90;;;6.50;;
75535;SDS011;64119;52.070;20.804;2023-07-13T03:16:56;10.00;;;6.60;;
75535;SDS011;64119;52.070;20.804;2023-07-13T03:19:28;7.60;;;5.70;;
75535;SDS011;64119;52.070;20.804;2023-07-13T03:21:56;9.90;;;6.30;;
75535;SDS011;64119;52.070;20.804;2023-07-13T03:24:23;7.90;;;5.80;;
75535;SDS011;64119;52.070;20.804;2023-07-13T03:26:53;9.70;;;7.00;;
75535;SDS011;64119;52.070;20.804;2023-07-13T03:29:27;8.60;;;6.00;;
75535;SDS011;64119;52.070;20.804;2023-07-13T03:31:56;9.10;;;6.90;;
75535;SDS011;64119;52.070;20.804;2023-07-13T03:34:23;9.10;;;7.00;;
75535;SDS011;64119;52.070;20.804;2023-07-13T03:36:53;9.40;;;6.60;;
75535;SDS011;64119;52.070;20.804;2023-07-13T03:39:22;9.10;;;7.20;;
75535;SDS011;64119;52.070;20.804;2023-07-13T03:41:53;9.80;;;7.00;;
75535;SDS011;64119;52.070;20.804;2023-07-13T03:44:22;10.90;;;8.20;;
75535;SDS011;64119;52.070;20.804;2023-07-13T03:46:53;11.00;;;8.20;;
75535;SDS011;64119;52.070;20.804;2023-07-13T03:49:21;10.00;;;8.10;;
75535;SDS011;64119;52.070;20.804;2023-07-13T03:51:49;11.60;;;9.20;;
75535;SDS011;64119;52.070;20.804;2023-07-13T03:54:20;11.80;;;9.10;;
75535;SDS011;64119;52.070;20.804;2023-07-13T03:56:48;12.80;;;8.10;;
75535;SDS011;64119;52.070;20.804;2023-07-13T03:59:17;10.90;;;8.80;;
75535;SDS011;64119;52.070;20.804;2023-07-13T04:01:45;10.20;;;8.40;;
75535;SDS011;64119;52.070;20.804;2023-07-13T04:04:14;12.90;;;9.30;;
75535;SDS011;64119;52.070;20.804;2023-07-13T04:06:43;11.70;;;8.50;;
75535;SDS011;64119;52.070;20.804;2023-07-13T04:09:12;10.60;;;7.80;;
75535;SDS011;64119;52.070;20.804;2023-07-13T04:11:39;11.30;;;8.60;;
75535;SDS011;64119;52.070;20.804;2023-07-13T04:14:07;11.60;;;9.00;;
75535;SDS011;64119;52.070;20.804;2023-07-13T04:16:35;12.70;;;9.90;;
75535;SDS011;64119;52.070;20.804;2023-07-13T04:19:03;10.50;;;7.90;;
75535;SDS011;64119;52.070;20.804;2023-07-13T04:21:31;10.40;;;8.40;;
75535;SDS011;64119;52.070;20.804;2023-07-13T04:24:00;10.30;;;7.80;;
75535;SDS011;64119;52.070;20.804;2023-07-13T04:26:30;12.80;;;9.10;;
75535;SDS011;64119;52.070;20.804;2023-07-13T04:28:58;12.10;;;8.80;;
75535;SDS011;64119;52.070;20.804;2023-07-13T04:31:26;12.60;;;8.80;;
75535;SDS011;64119;52.070;20.804;2023-07-13T04:33:54;10.90;;;8.50;;
75535;SDS011;64119;52.070;20.804;2023-07-13T04:36:24;11.40;;;9.00;;
75535;SDS011;64119;52.070;20.804;2023-07-13T04:38:54;16.00;;;8.90;;
75535;SDS011;64119;52.070;20.804;2023-07-13T04:41:23;11.80;;;9.10;;
75535;SDS011;64119;52.070;20.804;2023-07-13T04:43:50;12.60;;;9.60;;
75535;SDS011;64119;52.070;20.804;2023-07-13T04:46:23;13.10;;;8.60;;
75535;SDS011;64119;52.070;20.804;2023-07-13T04:48:51;10.60;;;7.90;;
75535;SDS011;64119;52.070;20.804;2023-07-13T04:51:21;11.80;;;7.80;;
75535;SDS011;64119;52.070;20.804;2023-07-13T04:53:49;9.60;;;8.00;;
75535;SDS011;64119;52.070;20.804;2023-07-13T04:56:23;10.60;;;7.80;;
75535;SDS011;64119;52.070;20.804;2023-07-13T04:58:50;12.70;;;8.20;;
75535;SDS011;64119;52.070;20.804;2023-07-13T05:01:21;13.30;;;8.20;;
75535;SDS011;64119;52.070;20.804;2023-07-13T05:03:49;13.50;;;8.30;;
75535;SDS011;64119;52.070;20.804;2023-07-13T05:06:18;14.50;;;8.70;;
75535;SDS011;64119;52.070;20.804;2023-07-13T05:08:46;12.20;;;8.40;;
75535;SDS011;64119;52.070;20.804;2023-07-13T05:11:13;13.30;;;9.00;;
75535;SDS011;64119;52.070;20.804;2023-07-13T05:13:41;9.50;;;8.00;;
75535;SDS011;64119;52.070;20.804;2023-07-13T05:16:10;11.00;;;9.00;;
75535;SDS011;64119;52.070;20.804;2023-07-13T05:18:38;12.30;;;8.30;;
75535;SDS011;64119;52.070;20.804;2023-07-13T05:21:10;12.40;;;8.60;;
75535;SDS011;64119;52.070;20.804;2023-07-13T05:23:39;14.20;;;9.30;;
75535;SDS011;64119;52.070;20.804;2023-07-13T05:26:09;12.70;;;9.00;;
75535;SDS011;64119;52.070;20.804;2023-07-13T05:28:38;10.70;;;7.70;;
75535;SDS011;64119;52.070;20.804;2023-07-13T05:31:07;10.90;;;8.50;;
75535;SDS011;64119;52.070;20.804;2023-07-13T05:33:36;11.20;;;7.90;;
75535;SDS011;64119;52.070;20.804;2023-07-13T05:36:06;9.90;;;8.70;;
75535;SDS011;64119;52.070;20.804;2023-07-13T05:38:35;12.20;;;8.00;;
75535;SDS011;64119;52.070;20.804;2023-07-13T05:41:03;12.50;;;8.50;;
75535;SDS011;64119;52.070;20.804;2023-07-13T05:43:33;10.30;;;8.20;;
75535;SDS011;64119;52.070;20.804;2023-07-13T05:46:01;13.20;;;7.80;;
75535;SDS011;64119;52.070;20.804;2023-07-13T05:48:29;10.90;;;8.70;;
75535;SDS011;64119;52.070;20.804;2023-07-13T05:50:58;11.60;;;8.90;;
75535;SDS011;64119;52.070;20.804;2023-07-13T05:53:26;12.30;;;9.30;;
75535;SDS011;64119;52.070;20.804;2023-07-13T05:55:54;13.90;;;9.30;;
75535;SDS011;64119;52.070;20.804;2023-07-13T05:58:24;13.60;;;9.70;;
75535;SDS011;64119;52.070;20.804;2023-07-13T06:00:58;15.40;;;10.20;;
75535;SDS011;64119;52.070;20.804;2023-07-13T06:03:32;13.00;;;10.60;;
75535;SDS011;64119;52.070;20.804;2023-07-13T06:06:00;13.10;;;9.10;;
75535;SDS011;64119;52.070;20.804;2023-07-13T06:08:28;10.60;;;7.90;;
75535;SDS011;64119;52.070;20.804;2023-07-13T06:11:04;14.40;;;9.60;;
75535;SDS011;64119;52.070;20.804;2023-07-13T06:13:37;12.30;;;10.20;;
75535;SDS011;64119;52.070;20.804;2023-07-13T06:16:05;13.60;;;10.00;;
75535;SDS011;64119;52.070;20.804;2023-07-13T06:18:35;14.40;;;11.40;;
75535;SDS011;64119;52.070;20.804;2023-07-13T06:21:07;12.00;;;10.40;;
75535;SDS011;64119;52.070;20.804;2023-07-13T06:23:36;14.70;;;12.20;;
75535;SDS011;64119;52.070;20.804;2023-07-13T06:26:04;16.60;;;12.00;;
75535;SDS011;64119;52.070;20.804;2023-07-13T06:28:33;15.60;;;11.90;;
75535;SDS011;64119;52.070;20.804;2023-07-13T06:31:01;18.10;;;11.70;;
75535;SDS011;64119;52.070;20.804;2023-07-13T06:33:31;16.10;;;12.00;;
75535;SDS011;64119;52.070;20.804;2023-07-13T06:35:59;15.90;;;11.80;;
75535;SDS011;64119;52.070;20.804;2023-07-13T06:38:29;12.80;;;10.90;;
75535;SDS011;64119;52.070;20.804;2023-07-13T06:40:57;14.10;;;10.50;;
75535;SDS011;64119;52.070;20.804;2023-07-13T06:43:25;12.80;;;10.10;;
75535;SDS011;64119;52.070;20.804;2023-07-13T06:45:54;12.60;;;10.00;;
75535;SDS011;64119;52.070;20.804;2023-07-13T06:48:23;13.80;;;10.00;;
75535;SDS011;64119;52.070;20.804;2023-07-13T06:50:51;15.70;;;10.30;;
75535;SDS011;64119;52.070;20.804;2023-07-13T06:53:20;12.00;;;9.30;;
75535;SDS011;64119;52.070;20.804;2023-07-13T06:55:48;14.40;;;9.80;;
75535;SDS011;64119;52.070;20.804;2023-07-13T06:58:16;11.50;;;9.80;;
75535;SDS011;64119;52.070;20.804;2023-07-13T07:00:45;12.20;;;9.20;;
75535;SDS011;64119;52.070;20.804;2023-07-13T07:03:14;12.50;;;8.20;;
75535;SDS011;64119;52.070;20.804;2023-07-13T07:05:42;9.80;;;8.40;;
75535;SDS011;64119;52.070;20.804;2023-07-13T07:08:09;9.10;;;7.40;;
75535;SDS011;64119;52.070;20.804;2023-07-13T07:10:37;10.30;;;7.20;;
75535;SDS011;64119;52.070;20.804;2023-07-13T07:13:05;10.50;;;7.00;;
75535;SDS011;64119;52.070;20.804;2023-07-13T07:15:34;9.50;;;6.90;;
75535;SDS011;64119;52.070;20.804;2023-07-13T07:18:02;9.90;;;7.20;;
75535;SDS011;64119;52.070;20.804;2023-07-13T07:20:30;7.10;;;6.20;;
75535;SDS011;64119;52.070;20.804;2023-07-13T07:23:00;8.50;;;6.80;;
75535;SDS011;64119;52.070;20.804;2023-07-13T07:25:28;8.20;;;6.00;;
75535;SDS011;64119;52.070;20.804;2023-07-13T07:27:59;7.50;;;5.80;;
75535;SDS011;64119;52.070;20.804;2023-07-13T07:30:30;8.40;;;5.90;;
75535;SDS011;64119;52.070;20.804;2023-07-13T07:33:00;8.40;;;6.30;;
75535;SDS011;64119;52.070;20.804;2023-07-13T07:35:32;7.10;;;6.10;;
75535;SDS011;64119;52.070;20.804;2023-07-13T07:38:21;7.20;;;6.00;;
75535;SDS011;64119;52.070;20.804;2023-07-13T07:40:52;7.90;;;6.10;;
75535;SDS011;64119;52.070;20.804;2023-07-13T07:43:22;9.00;;;6.80;;
75535;SDS011;64119;52.070;20.804;2023-07-13T07:45:54;7.00;;;5.50;;
75535;SDS011;64119;52.070;20.804;2023-07-13T07:48:22;8.70;;;7.30;;
75535;SDS011;64119;52.070;20.804;2023-07-13T07:50:50;9.20;;;7.10;;
75535;SDS011;64119;52.070;20.804;2023-07-13T07:53:17;7.90;;;5.80;;
75535;SDS011;64119;52.070;20.804;2023-07-13T07:55:45;7.20;;;6.10;;
75535;SDS011;64119;52.070;20.804;2023-07-13T07:58:18;8.30;;;5.80;;
75535;SDS011;64119;52.070;20.804;2023-07-13T08:00:49;7.40;;;6.00;;
75535;SDS011;64119;52.070;20.804;2023-07-13T08:03:21;8.30;;;6.50;;
75535;SDS011;64119;52.070;20.804;2023-07-13T08:05:52;8.40;;;6.60;;
75535;SDS011;64119;52.070;20.804;2023-07-13T08:08:24;9.40;;;6.60;;
75535;SDS011;64119;52.070;20.804;2023-07-13T08:10:52;8.30;;;6.30;;
75535;SDS011;64119;52.070;20.804;2023-07-13T08:13:28;7.70;;;6.50;;
75535;SDS011;64119;52.070;20.804;2023-07-13T08:15:55;9.30;;;6.60;;
75535;SDS011;64119;52.070;20.804;2023-07-13T08:18:24;8.20;;;6.40;;
75535;SDS011;64119;52.070;20.804;2023-07-13T08:20:51;7.60;;;6.00;;
75535;SDS011;64119;52.070;20.804;2023-07-13T08:23:19;8.80;;;6.50;;
75535;SDS011;64119;52.070;20.804;2023-07-13T08:25:51;9.80;;;6.90;;
75535;SDS011;64119;52.070;20.804;2023-07-13T08:28:20;7.90;;;6.50;;
75535;SDS011;64119;52.070;20.804;2023-07-13T08:30:52;7.90;;;7.00;;
75535;SDS011;64119;52.070;20.804;2023-07-13T08:33:21;8.60;;;6.10;;
75535;SDS011;64119;52.070;20.804;2023-07-13T08:35:51;8.30;;;7.10;;
75535;SDS011;64119;52.070;20.804;2023-07-13T08:38:19;9.40;;;6.80;;
75535;SDS011;64119;52.070;20.804;2023-07-13T08:40:52;7.80;;;7.00;;
75535;SDS011;64119;52.070;20.804;2023-07-13T08:43:25;7.50;;;6.70;;
75535;SDS011;64119;52.070;20.804;2023-07-13T08:45:59;9.00;;;6.20;;
75535;SDS011;64119;52.070;20.804;2023-07-13T08:48:34;8.30;;;6.60;;
75535;SDS011;64119;52.070;20.804;2023-07-13T08:53:45;7.30;;;6.10;;
75535;SDS011;64119;52.070;20.804;2023-07-13T08:56:17;8.90;;;6.60;;
75535;SDS011;64119;52.070;20.804;2023-07-13T08:58:48;7.60;;;6.10;;
75535;SDS011;64119;52.070;20.804;2023-07-13T09:04:16;9.60;;;6.70;;
75535;SDS011;64119;52.070;20.804;2023-07-13T09:12:56;8.40;;;6.70;;
75535;SDS011;64119;52.070;20.804;2023-07-13T09:18:04;6.80;;;6.00;;
75535;SDS011;64119;52.070;20.804;2023-07-13T09:20:40;8.30;;;5.40;;
75535;SDS011;64119;52.070;20.804;2023-07-13T09:23:14;7.30;;;5.40;;
75535;SDS011;64119;52.070;20.804;2023-07-13T09:25:47;8.00;;;6.10;;
75535;SDS011;64119;52.070;20.804;2023-07-13T09:28:25;7.70;;;6.40;;
75535;SDS011;64119;52.070;20.804;2023-07-13T09:31:01;9.00;;;6.30;;
75535;SDS011;64119;52.070;20.804;2023-07-13T09:33:33;7.00;;;6.30;;
75535;SDS011;64119;52.070;20.804;2023-07-13T09:36:05;7.40;;;5.90;;
75535;SDS011;64119;52.070;20.804;2023-07-13T09:38:46;7.40;;;5.50;;
75535;SDS011;64119;52.070;20.804;2023-07-13T09:41:21;9.80;;;5.90;;
75535;SDS011;64119;52.070;20.804;2023-07-13T09:44:12;7.60;;;5.40;;
75535;SDS011;64119;52.070;20.804;2023-07-13T09:46:45;6.50;;;5.50;;
75535;SDS011;64119;52.070;20.804;2023-07-13T09:49:26;7.50;;;5.10;;
75535;SDS011;64119;52.070;20.804;2023-07-13T09:52:02;8.00;;;6.10;;
75535;SDS011;64119;52.070;20.804;2023-07-13T09:54:33;6.40;;;5.50;;
75535;SDS011;64119;52.070;20.804;2023-07-13T09:57:08;6.40;;;4.80;;
75535;SDS011;64119;52.070;20.804;2023-07-13T09:59:41;5.50;;;4.90;;
75535;SDS011;64119;52.070;20.804;2023-07-13T10:02:22;6.80;;;5.10;;
75535;SDS011;64119;52.070;20.804;2023-07-13T10:04:55;6.50;;;5.10;;
75535;SDS011;64119;52.070;20.804;2023-07-13T10:07:26;6.40;;;5.00;;
75535;SDS011;64119;52.070;20.804;2023-07-13T10:09:58;8.40;;;5.00;;
75535;SDS011;64119;52.070;20.804;2023-07-13T10:12:29;9.00;;;5.70;;
75535;SDS011;64119;52.070;20.804;2023-07-13T10:15:03;7.50;;;5.70;;
75535;SDS011;64119;52.070;20.804;2023-07-13T10:17:51;8.70;;;5.00;;
75535;SDS011;64119;52.070;20.804;2023-07-13T10:20:26;6.00;;;5.30;;
75535;SDS011;64119;52.070;20.804;2023-07-13T10:25:33;5.90;;;4.70;;
75535;SDS011;64119;52.070;20.804;2023-07-13T10:33:22;5.80;;;4.90;;
75535;SDS011;64119;52.070;20.804;2023-07-13T10:35:51;8.50;;;5.40;;
75535;SDS011;64119;52.070;20.804;2023-07-13T10:38:24;9.50;;;5.70;;
75535;SDS011;64119;52.070;20.804;2023-07-13T10:41:00;8.60;;;5.70;;
75535;SDS011;64119;52.070;20.804;2023-07-13T10:43:36;6.00;;;4.80;;
75535;SDS011;64119;52.070;20.804;2023-07-13T10:46:18;7.90;;;4.20;;
75535;SDS011;64119;52.070;20.804;2023-07-13T10:48:49;8.60;;;3.90;;
75535;SDS011;64119;52.070;20.804;2023-07-13T10:51:21;10.30;;;3.60;;
75535;SDS011;64119;52.070;20.804;2023-07-13T10:56:51;5.40;;;3.40;;
75535;SDS011;64119;52.070;20.804;2023-07-13T10:59:34;4.90;;;2.90;;
75535;SDS011;64119;52.070;20.804;2023-07-13T11:04:39;4.90;;;3.20;;
75535;SDS011;64119;52.070;20.804;2023-07-13T11:07:10;5.40;;;3.50;;
75535;SDS011;64119;52.070;20.804;2023-07-13T11:09:48;4.90;;;3.70;;
75535;SDS011;64119;52.070;20.804;2023-07-13T11:17:38;7.70;;;4.40;;
75535;SDS011;64119;52.070;20.804;2023-07-13T11:22:51;6.00;;;4.50;;
75535;SDS011;64119;52.070;20.804;2023-07-13T11:25:36;5.80;;;4.10;;
75535;SDS011;64119;52.070;20.804;2023-07-13T11:28:07;7.30;;;4.90;;
75535;SDS011;64119;52.070;20.804;2023-07-13T11:30:49;7.50;;;4.60;;
75535;SDS011;64119;52.070;20.804;2023-07-13T11:36:14;5.40;;;3.80;;
75535;SDS011;64119;52.070;20.804;2023-07-13T11:38:44;4.50;;;3.20;;
75535;SDS011;64119;52.070;20.804;2023-07-13T11:41:28;4.80;;;3.20;;
75535;SDS011;64119;52.070;20.804;2023-07-13T11:44:05;3.80;;;3.00;;
75535;SDS011;64119;52.070;20.804;2023-07-13T11:46:38;4.30;;;3.20;;
75535;SDS011;64119;52.070;20.804;2023-07-13T11:49:07;7.20;;;3.80;;
75535;SDS011;64119;52.070;20.804;2023-07-13T11:51:35;6.00;;;3.30;;
75535;SDS011;64119;52.070;20.804;2023-07-13T11:54:05;4.80;;;3.50;;
75535;SDS011;64119;52.070;20.804;2023-07-13T11:56:55;4.30;;;2.90;;
75535;SDS011;64119;52.070;20.804;2023-07-13T11:59:29;5.60;;;3.90;;
75535;SDS011;64119;52.070;20.804;2023-07-13T12:01:57;7.30;;;4.40;;
75535;SDS011;64119;52.070;20.804;2023-07-13T12:04:27;6.10;;;3.60;;
75535;SDS011;64119;52.070;20.804;2023-07-13T12:07:06;5.90;;;3.70;;
75535;SDS011;64119;52.070;20.804;2023-07-13T12:09:42;6.00;;;3.60;;
75535;SDS011;64119;52.070;20.804;2023-07-13T12:12:11;5.80;;;4.40;;
75535;SDS011;64119;52.070;20.804;2023-07-13T12:14:40;5.60;;;4.00;;
75535;SDS011;64119;52.070;20.804;2023-07-13T12:17:13;6.00;;;4.40;;
75535;SDS011;64119;52.070;20.804;2023-07-13T12:19:48;5.30;;;4.10;;
75535;SDS011;64119;52.070;20.804;2023-07-13T12:22:18;6.00;;;4.50;;
75535;SDS011;64119;52.070;20.804;2023-07-13T12:24:48;5.90;;;4.20;;
75535;SDS011;64119;52.070;20.804;2023-07-13T12:27:24;6.70;;;4.60;;
75535;SDS011;64119;52.070;20.804;2023-07-13T12:30:01;5.00;;;4.50;;
75535;SDS011;64119;52.070;20.804;2023-07-13T12:32:32;5.80;;;4.20;;
75535;SDS011;64119;52.070;20.804;2023-07-13T12:35:12;6.30;;;4.80;;
75535;SDS011;64119;52.070;20.804;2023-07-13T12:37:43;7.10;;;4.50;;
75535;SDS011;64119;52.070;20.804;2023-07-13T12:40:15;6.40;;;4.30;;
75535;SDS011;64119;52.070;20.804;2023-07-13T12:42:46;6.30;;;4.70;;
75535;SDS011;64119;52.070;20.804;2023-07-13T12:47:48;5.90;;;4.50;;
75535;SDS011;64119;52.070;20.804;2023-07-13T12:50:22;6.60;;;4.70;;
75535;SDS011;64119;52.070;20.804;2023-07-13T12:52:51;6.60;;;4.90;;
75535;SDS011;64119;52.070;20.804;2023-07-13T12:55:21;6.00;;;4.60;;
75535;SDS011;64119;52.070;20.804;2023-07-13T12:57:56;5.50;;;4.50;;
75535;SDS011;64119;52.070;20.804;2023-07-13T13:00:27;7.20;;;4.90;;
75535;SDS011;64119;52.070;20.804;2023-07-13T13:03:15;5.00;;;3.90;;
75535;SDS011;64119;52.070;20.804;2023-07-13T13:06:01;5.80;;;4.80;;
75535;SDS011;64119;52.070;20.804;2023-07-13T13:08:34;5.10;;;4.60;;
75535;SDS011;64119;52.070;20.804;2023-07-13T13:11:03;6.20;;;5.20;;
75535;SDS011;64119;52.070;20.804;2023-07-13T13:13:30;5.70;;;4.60;;
75535;SDS011;64119;52.070;20.804;2023-07-13T13:16:04;6.70;;;5.40;;
75535;SDS011;64119;52.070;20.804;2023-07-13T13:18:57;7.00;;;5.90;;
75535;SDS011;64119;52.070;20.804;2023-07-13T13:21:37;6.20;;;5.30;;
75535;SDS011;64119;52.070;20.804;2023-07-13T13:24:10;5.90;;;5.20;;
75535;SDS011;64119;52.070;20.804;2023-07-13T13:26:40;6.30;;;5.10;;
75535;SDS011;64119;52.070;20.804;2023-07-13T13:29:19;7.20;;;5.60;;
75535;SDS011;64119;52.070;20.804;2023-07-13T13:31:49;6.10;;;5.10;;
75535;SDS011;64119;52.070;20.804;2023-07-13T13:34:17;6.50;;;4.80;;
75535;SDS011;64119;52.070;20.804;2023-07-13T13:39:20;5.20;;;3.70;;
75535;SDS011;64119;52.070;20.804;2023-07-13T13:41:52;5.20;;;4.10;;
75535;SDS011;64119;52.070;20.804;2023-07-13T13:44:21;6.30;;;4.30;;
75535;SDS011;64119;52.070;20.804;2023-07-13T13:46:50;7.50;;;4.80;;
75535;SDS011;64119;52.070;20.804;2023-07-13T13:49:23;5.60;;;4.20;;
75535;SDS011;64119;52.070;20.804;2023-07-13T13:51:54;6.00;;;4.90;;
75535;SDS011;64119;52.070;20.804;2023-07-13T13:54:23;5.80;;;4.40;;
75535;SDS011;64119;52.070;20.804;2023-07-13T13:56:53;7.40;;;4.80;;
75535;SDS011;64119;52.070;20.804;2023-07-13T13:59:22;6.70;;;5.00;;
75535;SDS011;64119;52.070;20.804;2023-07-13T14:01:50;7.10;;;4.60;;
75535;SDS011;64119;52.070;20.804;2023-07-13T14:04:20;5.90;;;4.20;;
75535;SDS011;64119;52.070;20.804;2023-07-13T14:06:49;6.50;;;4.10;;
75535;SDS011;64119;52.070;20.804;2023-07-13T14:09:18;6.10;;;3.90;;
75535;SDS011;64119;52.070;20.804;2023-07-13T14:11:47;6.80;;;4.40;;
75535;SDS011;64119;52.070;20.804;2023-07-13T14:14:20;7.00;;;4.60;;
75535;SDS011;64119;52.070;20.804;2023-07-13T14:16:53;6.10;;;4.50;;
75535;SDS011;64119;52.070;20.804;2023-07-13T14:19:24;6.80;;;4.10;;
75535;SDS011;64119;52.070;20.804;2023-07-13T14:21:52;4.90;;;4.30;;
75535;SDS011;64119;52.070;20.804;2023-07-13T14:24:21;6.40;;;4.50;;
75535;SDS011;64119;52.070;20.804;2023-07-13T14:26:49;5.60;;;4.20;;
75535;SDS011;64119;52.070;20.804;2023-07-13T14:29:18;6.70;;;4.70;;
75535;SDS011;64119;52.070;20.804;2023-07-13T14:31:51;6.20;;;4.70;;
75535;SDS011;64119;52.070;20.804;2023-07-13T14:34:20;6.40;;;4.50;;
75535;SDS011;64119;52.070;20.804;2023-07-13T14:39:19;7.60;;;4.50;;
75535;SDS011;64119;52.070;20.804;2023-07-13T14:41:50;6.30;;;4.50;;
75535;SDS011;64119;52.070;20.804;2023-07-13T14:44:26;5.90;;;4.20;;
75535;SDS011;64119;52.070;20.804;2023-07-13T14:46:59;6.00;;;4.50;;
75535;SDS011;64119;52.070;20.804;2023-07-13T14:49:35;6.80;;;4.60;;
75535;SDS011;64119;52.070;20.804;2023-07-13T14:52:18;5.70;;;4.40;;
75535;SDS011;64119;52.070;20.804;2023-07-13T14:54:47;6.60;;;5.00;;
75535;SDS011;64119;52.070;20.804;2023-07-13T14:57:16;7.10;;;4.50;;
75535;SDS011;64119;52.070;20.804;2023-07-13T14:59:48;6.40;;;4.90;;
75535;SDS011;64119;52.070;20.804;2023-07-13T15:04:58;6.10;;;4.80;;
75535;SDS011;64119;52.070;20.804;2023-07-13T15:07:26;7.40;;;5.20;;
75535;SDS011;64119;52.070;20.804;2023-07-13T15:09:55;7.50;;;4.90;;
75535;SDS011;64119;52.070;20.804;2023-07-13T15:12:23;6.50;;;5.40;;
75535;SDS011;64119;52.070;20.804;2023-07-13T15:14:51;8.20;;;5.50;;
75535;SDS011;64119;52.070;20.804;2023-07-13T15:17:41;7.80;;;5.70;;
75535;SDS011;64119;52.070;20.804;2023-07-13T15:20:17;6.40;;;5.70;;
75535;SDS011;64119;52.070;20.804;2023-07-13T15:22:58;7.00;;;5.40;;
75535;SDS011;64119;52.070;20.804;2023-07-13T15:25:27;7.40;;;5.50;;
75535;SDS011;64119;52.070;20.804;2023-07-13T15:27:57;6.90;;;5.70;;
75535;SDS011;64119;52.070;20.804;2023-07-13T15:30:27;6.80;;;5.90;;
75535;SDS011;64119;52.070;20.804;2023-07-13T15:32:57;6.30;;;4.60;;
75535;SDS011;64119;52.070;20.804;2023-07-13T15:35:34;7.00;;;5.80;;
75535;SDS011;64119;52.070;20.804;2023-07-13T15:38:09;8.80;;;5.60;;
75535;SDS011;64119;52.070;20.804;2023-07-13T15:40:41;6.90;;;5.00;;
75535;SDS011;64119;52.070;20.804;2023-07-13T15:43:10;6.70;;;5.50;;
75535;SDS011;64119;52.070;20.804;2023-07-13T15:45:40;7.20;;;5.40;;
75535;SDS011;64119;52.070;20.804;2023-07-13T15:48:13;6.50;;;5.30;;